Данни от 22.10.2017 г. 05:39:59

Температура вътрешна: 22.6 °C
Температура външна: 14.6 °C
Атмосферно налягане: 997.4 hPa
Атмосферно налягане на морско равнище: 1015.2 hPa
Влажност: 57.9 %



История от последните 24 часа

Дата и часTin [°C]P [hPa]Psl [hPa]H [%]Tout [°C]
   22.10.2017 г. 05:30:59      22.6      997.5      1015.3      57.9      15.0   
   22.10.2017 г. 05:00:00      22.7      997.2      1015.0      58.3      14.5   
   22.10.2017 г. 04:30:59      22.7      997.4      1015.2      58.0      15.1   
   22.10.2017 г. 04:00:00      22.7      997.5      1015.3      57.8      15.8   
   22.10.2017 г. 03:30:59      22.7      997.2      1015.0      57.9      15.9   
   22.10.2017 г. 03:00:00      22.8      997.1      1014.9      58.1      15.8   
   22.10.2017 г. 02:30:59      22.8      997.0      1014.8      58.1      16.0   
   22.10.2017 г. 02:00:00      22.8      997.1      1014.9      58.1      16.0   
   22.10.2017 г. 01:30:59      22.7      997.1      1014.9      58.3      16.3   
   22.10.2017 г. 00:30:59      22.4      996.9      1014.7      57.1      17.5   
   22.10.2017 г. 00:00:59      22.2      997.1      1014.9      57.0      17.9   
   21.10.2017 г. 23:30:59      22.0      997.2      1015.0      57.0      18.3   
   21.10.2017 г. 23:00:59      22.0      997.3      1015.1      57.6      18.3   
   21.10.2017 г. 22:30:59      22.0      997.4      1015.2      58.1      18.4   
   21.10.2017 г. 22:00:59      21.9      997.4      1015.2      57.5      18.4   
   21.10.2017 г. 21:30:59      21.9      997.5      1015.3      57.8      18.4   
   21.10.2017 г. 21:00:59      21.9      997.5      1015.3      57.9      18.0   
   21.10.2017 г. 20:30:59      21.9      997.7      1015.5      57.5      18.3   
   21.10.2017 г. 20:30:00      21.9      997.6      1015.4      57.5      18.4   
   21.10.2017 г. 20:00:59      22.0      997.7      1015.5      57.3      19.0   
   21.10.2017 г. 19:30:59      22.0      997.8      1015.6      57.1      18.5   
   21.10.2017 г. 19:00:59      22.0      997.8      1015.6      57.7      20.0   
   21.10.2017 г. 18:30:00      22.0      997.7      1015.5      57.5      22.9   
   21.10.2017 г. 18:00:59      22.0      997.7      1015.5      57.2      26.9   
   21.10.2017 г. 17:30:00      22.0      997.7      1015.5      56.1      28.3   
   21.10.2017 г. 17:00:59      22.1      997.7      1015.5      56.0      28.4   
   21.10.2017 г. 16:30:00      22.1      997.9      1015.7      55.7      27.2   
   21.10.2017 г. 16:00:59      22.1      998.0      1015.8      56.0      26.0   
   21.10.2017 г. 15:30:00      22.1      998.1      1015.9      56.2      24.8   
   21.10.2017 г. 15:00:59      22.0      998.3      1016.1      56.1      23.6   
   21.10.2017 г. 14:30:00      22.0      998.8      1016.6      56.9      22.4   
   21.10.2017 г. 14:00:59      21.9      999.1      1016.9      56.5      21.2   
   21.10.2017 г. 13:30:00      21.9      999.6      1017.5      56.4      20.0   
   21.10.2017 г. 13:00:59      21.9      1000.0      1017.9      56.1      18.8   
   21.10.2017 г. 12:30:00      21.9      1000.5      1018.3      54.4      17.6   
   21.10.2017 г. 12:00:59      21.8      1000.6      1018.5      54.4      16.6   
   21.10.2017 г. 11:30:00      21.9      1000.7      1018.6      54.3      15.5   
   21.10.2017 г. 11:00:59      21.8      1000.8      1018.7      54.5      14.5   
   21.10.2017 г. 10:30:59      21.8      1000.9      1018.8      54.7      13.4   
   21.10.2017 г. 10:00:59      21.8      1000.9      1018.8      54.3      12.5   
   21.10.2017 г. 09:30:59      21.8      1001.0      1018.9      55.6      11.6   
   21.10.2017 г. 09:00:59      21.9      1000.7      1018.6      56.9      10.9   
   21.10.2017 г. 08:30:59      22.1      1000.7      1018.5      57.1      10.5   
   21.10.2017 г. 08:00:00      22.5      1000.4      1018.2      58.3      10.3   
   21.10.2017 г. 07:30:59      22.6      1000.2      1018.1      58.2      10.0   
   21.10.2017 г. 07:00:59      22.6      1000.3      1018.1      58.5      10.5   
   21.10.2017 г. 06:30:59      22.7      1000.3      1018.2      59.3      10.9   
   21.10.2017 г. 06:00:59      22.7      1000.3      1018.1      58.9      10.9   

BaroSL graphic

TEMPE graphic